KSNY/SNY METAR and TAF weather

Enter ICAO airport designator
Station Type Date Time Source
KSNY METAR 2020/10/29 16:53 UTC NOAA

KSNY 291653Z AUTO 24016KT 10SM CLR 11/02 A3014 RMK AO2 SLP211 T01110022


Station Type Date Time Source
KSNY Decoded METAR 2020/10/29 16:53 UTC NOAA

SIDNEY MUNICIPAL AIRPORT, NE, United States (KSNY) 41-06N 102-59W 1307M
Oct 29, 2020 - 12:53 PM EDT / 2020.10.29 1653 UTC
Wind: from the WSW (240 degrees) at 18 MPH (16 KT):0
Visibility: 10 mile(s):0
Sky conditions: clear
Temperature: 52.0 F (11.1 C)
Dew Point: 36.0 F (2.2 C)
Relative Humidity: 54%
Pressure (altimeter): 30.14 in. Hg (1020 hPa)
ob: KSNY 291653Z AUTO 24016KT 10SM CLR 11/02 A3014 RMK AO2 SLP211 T01110022
cycle: 17

Station Type Date Time Source
KSNY TAF 2020/10/29 12:24 UTC NOAA

TAF KSNY 291120Z 2912/3012 22009KT P6SM SKC
FM291700 27012G20KT P6SM SKC
FM300000 28008KT P6SM BKN250

Example: see airport list